METAR AND TAF INFORMATION
METAR FOR LESO
ADDS - METARS form results

(1908 UTC 16 May 2022)
Data provider http://aviationweather.gov/metar/data/
 
METAR text: LESO 161900Z 01004KT 330V050 CAVOK 23/15 Q1017
Conditions at: LESO (SAN SEBASTIAN/FU, ES) observed 1900 UTC 16 May 2022
Temperature: 23.0°C (73°F)
Dewpoint: 15.0°C (59°F) [RH = 61%]
Pressure (altimeter): 30.03 inches Hg (1017.0 mb)
Winds: from the N (10 degrees) at 5 MPH (4 knots; 2.1 m/s)
Visibility: 6 or more miles (10+ km)
Ceiling: ceiling and visibility are OK
Clouds: unknown
Weather: no significant weather observed at this time

METAR text: LESO 161830Z 02004KT 330V060 CAVOK 24/15 Q1016
Conditions at: LESO (SAN SEBASTIAN/FU, ES) observed 1830 UTC 16 May 2022
Temperature: 24.0°C (75°F)
Dewpoint: 15.0°C (59°F) [RH = 57%]
Pressure (altimeter): 30.00 inches Hg (1016.0 mb)
Winds: from the NNE (20 degrees) at 5 MPH (4 knots; 2.1 m/s)
Visibility: 6 or more miles (10+ km)
Ceiling: ceiling and visibility are OK
Clouds: unknown
Weather: no significant weather observed at this time

Forecast for: LESO (SAN SEBASTIAN/FU, ES)
Text: TAF LESO 161700Z 1618/1718 03010KT CAVOK TX29/1712Z TN18/1706Z
Forecast period: 1800 UTC 16 May 2022 to 1800 UTC 17 May 2022
Forecast type: FROM: standard forecast or significant change
Winds: from the NNE (30 degrees) at 12 MPH (10 knots; 5.1 m/s)
Visibility: 6 or more miles (10+ km)
Ceiling: unknown
Clouds: missing
Weather: no significant weather forecast for this period
Text: BECMG 1618/1620 VRB04KT
Forecast period: 1800 UTC 16 May 2022 to 1800 UTC 17 May 2022
Forecast type: BECOMING: Conditions expected to become as follows by 2000 UTC 16 May 2022
Winds: variable direction winds at 5 MPH (4 knots; 2.1 m/s)
Visibility: 6 or more miles (10+ km)
Ceiling: unknown
Clouds: missing
Weather: no significant weather forecast for this period
Text: TEMPO 1711/1714 34010KT
Forecast period: 1100 to 1400 UTC 17 May 2022
Forecast type: TEMPORARY: The following changes expected for less than half the time period
Winds: from the NNW (340 degrees) at 12 MPH (10 knots; 5.1 m/s)
Visibility: missing
Ceiling: unknown
Clouds: missing
Weather: no significant weather forecast for this period

 AIRPORT MAP

 RUNWAY INFORMATION
Runway 04 Runway length 5755 ft Runway width 148 ft
Runway elevation 10 ft Runway displaced threshold 0 ft Runway heading 39
Runway 22 Runway length 5755 ft Runway width 148 ft
Runway elevation 15 ft Runway displaced threshold 0 ft Runway heading 219

 AIRPORT FREQUENCIES
Type TWR Name SAN SEBAST Frequency 119.85 MHZ

 AIRPORT NEAR NAVIGATION AIDS
Type NDB-DME Name San Sebastian Frequency 328 KHZ
Type VOR-DME Name San Sebastian Frequency 117900 KHZ





Powered by Virtual Airlines Manager

Maps by Rafael Santos